Airfield :







YOU CAN JOIN US ON...

 
LOGIN :

Register | Disclaimer

   EN    FR    IT 

 









Legend :    VFR   Marginal VFR   IFR   Intensive IFR   Very Intensive IFR
Visi :
Ceiling :
>= 8 km
>= 3000ft
5 to 8 km
1000 to 3000 ft
1500m to 5 km
500 to 1000 ft
800 to 1500m
200 to 500 ft
< 800m
< 200 ft
Symbols :   Thunderstorms  Fog  Heavy snow  Heavy precipitations  Wind > 20 kt






- Airport Elevation : 626 ft


KCAR - Caribou Municipal

CURRENT METAR :
  • 041354Z AUTO 29010G20KT 10SM FEW035 M01/M08 A2993 RMK AO2 PK WND 30026/1259 SLP145 T10111083

EXPIRED METARs :
  • 041309Z AUTO 28009G25KT 230V300 10SM SCT030 BKN036 OVC060 M01/M08 A2990 RMK AO2 PK WND 30026/1259 T10111078
  • 041254Z AUTO 29010G21KT 9SM BKN028 OVC034 M01/M07 A2990 RMK AO2 SNB40E49 SLP133 P0000 T10111072

TAF KCAR
Valid from the 04 at 14:00 until the 05 at 12:00 UTC


041353Z 0414/0512 29012G22KT P6SM BKN030
FM041500 29012G22KT P6SM BKN035
FM042200 28006KT P6SM BKN080
FM051100 16007KT P6SM BKN070
KZBW FIR / North America



MET'MAP, your aeronautical weather chart ! - Copyright ORBIFLY December 2007 - Disclaimer

ORBIFLY MET'MAP TEAM :

Programming & Development : Alexandra Zaïnal
Original concept : Baudouin d'Aumeries
Technical & hardware support : Manuel Goepfert
Assistance : Marc-Olivier Méhu




SOURCES & CREDITS :

   NOAA